HTZA

Abeid Amani Karume International Airport

Airport
ICAO code
HTZA
IATA Code
ZNZ
Summary
ICAO Region
AFI
ICAO Territory
Location

Zanzibar City, Unguja Airport

Serving
Zanzibar
Elevation
54 ft
Coordinates
6° 13' 20" S , 39° 13' 30" E
KCC
Af
Metar
Observation
HTZA 171300Z 15015KT 9999 FEW020 29/18 Q1014 NOSIG
Station
Zanzibar / Kisauni
Date/Time
2022-08-17 13:00:00
Wind direction
150°
Wind speed
15 kts
Lowest cloud amount
few clouds
Temperature
29°C
Dew point
18°C
Humidity
51%
QNH
1014 hPa
Weather condition
n/a

Abeid Amani Karume International Airport is the main airport in the Zanzibar Archipelago located on Unguja Island. It was previously known as Kisauni Airport and Zanzibar International Airport.

Climatology

Tropical rainforest climate (Köppen climate classification Af)

Runways

Designator Length Width Surface Rops
18/36 2462 45 ASP Yes/Yes

Airport map

Aerial View

SKYbrary Partners:

Safety knowledge contributed by: